sensor_id;sensor_type;location;lat;lon;timestamp;temperature;humidity
44509;DHT22;30214;52.246;14.408;2024-01-10T00:00:56;-10.60;99.90
44509;DHT22;30214;52.246;14.408;2024-01-10T00:03:23;-10.60;99.90
44509;DHT22;30214;52.246;14.408;2024-01-10T00:05:50;-10.60;99.90
44509;DHT22;30214;52.246;14.408;2024-01-10T00:08:17;-10.60;99.90
44509;DHT22;30214;52.246;14.408;2024-01-10T00:10:45;-10.80;99.90
44509;DHT22;30214;52.246;14.408;2024-01-10T00:13:12;-11.00;99.90
44509;DHT22;30214;52.246;14.408;2024-01-10T00:15:39;-10.90;99.90
44509;DHT22;30214;52.246;14.408;2024-01-10T00:18:06;-10.80;99.90
44509;DHT22;30214;52.246;14.408;2024-01-10T00:20:33;-10.80;99.90
44509;DHT22;30214;52.246;14.408;2024-01-10T00:23:00;-10.70;99.90
44509;DHT22;30214;52.246;14.408;2024-01-10T00:25:27;-10.70;99.90
44509;DHT22;30214;52.246;14.408;2024-01-10T00:27:55;-10.70;99.90
44509;DHT22;30214;52.246;14.408;2024-01-10T00:30:22;-10.70;99.90
44509;DHT22;30214;52.246;14.408;2024-01-10T00:32:49;-10.70;99.90
44509;DHT22;30214;52.246;14.408;2024-01-10T00:35:16;-10.70;99.90
44509;DHT22;30214;52.246;14.408;2024-01-10T00:37:43;-10.80;99.90
44509;DHT22;30214;52.246;14.408;2024-01-10T00:40:10;-10.80;99.90
44509;DHT22;30214;52.246;14.408;2024-01-10T00:42:37;-11.10;99.90
44509;DHT22;30214;52.246;14.408;2024-01-10T00:45:06;-11.00;99.90
44509;DHT22;30214;52.246;14.408;2024-01-10T00:47:33;-11.00;99.90
44509;DHT22;30214;52.246;14.408;2024-01-10T00:50:00;-10.90;99.90
44509;DHT22;30214;52.246;14.408;2024-01-10T00:52:27;-10.90;99.90
44509;DHT22;30214;52.246;14.408;2024-01-10T00:54:54;-10.80;99.90
44509;DHT22;30214;52.246;14.408;2024-01-10T00:57:21;-10.80;99.90
44509;DHT22;30214;52.246;14.408;2024-01-10T00:59:48;-10.90;99.90
44509;DHT22;30214;52.246;14.408;2024-01-10T01:02:16;-10.90;99.90
44509;DHT22;30214;52.246;14.408;2024-01-10T01:04:43;-10.80;99.90
44509;DHT22;30214;52.246;14.408;2024-01-10T01:07:10;-10.80;99.90
44509;DHT22;30214;52.246;14.408;2024-01-10T01:09:37;-10.80;99.90
44509;DHT22;30214;52.246;14.408;2024-01-10T01:12:04;-10.90;99.90
44509;DHT22;30214;52.246;14.408;2024-01-10T01:14:32;-10.90;99.90
44509;DHT22;30214;52.246;14.408;2024-01-10T01:16:59;-11.00;99.90
44509;DHT22;30214;52.246;14.408;2024-01-10T01:19:27;-11.10;99.90
44509;DHT22;30214;52.246;14.408;2024-01-10T01:21:54;-11.10;99.90
44509;DHT22;30214;52.246;14.408;2024-01-10T01:24:21;-11.10;99.90
44509;DHT22;30214;52.246;14.408;2024-01-10T01:26:48;-11.10;99.90
44509;DHT22;30214;52.246;14.408;2024-01-10T01:29:14;-11.10;99.90
44509;DHT22;30214;52.246;14.408;2024-01-10T01:31:41;-11.10;99.90
44509;DHT22;30214;52.246;14.408;2024-01-10T01:34:09;-11.10;99.90
44509;DHT22;30214;52.246;14.408;2024-01-10T01:36:37;-11.10;99.90
44509;DHT22;30214;52.246;14.408;2024-01-10T01:39:04;-11.10;99.90
44509;DHT22;30214;52.246;14.408;2024-01-10T01:41:31;-11.20;99.90
44509;DHT22;30214;52.246;14.408;2024-01-10T01:43:58;-11.20;99.90
44509;DHT22;30214;52.246;14.408;2024-01-10T01:46:25;-11.20;99.90
44509;DHT22;30214;52.246;14.408;2024-01-10T01:48:53;-11.20;99.90
44509;DHT22;30214;52.246;14.408;2024-01-10T01:51:20;-11.40;99.90
44509;DHT22;30214;52.246;14.408;2024-01-10T01:53:49;-11.30;99.90
44509;DHT22;30214;52.246;14.408;2024-01-10T01:56:16;-11.30;99.90
44509;DHT22;30214;52.246;14.408;2024-01-10T01:58:43;-11.30;99.90
44509;DHT22;30214;52.246;14.408;2024-01-10T02:01:12;-11.40;99.90
44509;DHT22;30214;52.246;14.408;2024-01-10T02:03:39;-11.50;99.90
44509;DHT22;30214;52.246;14.408;2024-01-10T02:06:05;-11.40;99.90
44509;DHT22;30214;52.246;14.408;2024-01-10T02:08:33;-11.30;99.90
44509;DHT22;30214;52.246;14.408;2024-01-10T02:11:02;-11.20;99.90
44509;DHT22;30214;52.246;14.408;2024-01-10T02:13:30;-11.20;99.90
44509;DHT22;30214;52.246;14.408;2024-01-10T02:15:57;-11.20;99.90
44509;DHT22;30214;52.246;14.408;2024-01-10T02:18:25;-11.20;99.90
44509;DHT22;30214;52.246;14.408;2024-01-10T02:20:52;-11.10;99.90
44509;DHT22;30214;52.246;14.408;2024-01-10T02:23:19;-11.10;99.90
44509;DHT22;30214;52.246;14.408;2024-01-10T02:25:47;-11.20;99.90
44509;DHT22;30214;52.246;14.408;2024-01-10T02:28:14;-11.10;99.90
44509;DHT22;30214;52.246;14.408;2024-01-10T02:30:41;-11.10;99.90
44509;DHT22;30214;52.246;14.408;2024-01-10T02:33:09;-11.10;99.90
44509;DHT22;30214;52.246;14.408;2024-01-10T02:35:36;-11.10;99.90
44509;DHT22;30214;52.246;14.408;2024-01-10T02:38:02;-11.10;99.90
44509;DHT22;30214;52.246;14.408;2024-01-10T02:40:30;-11.10;99.90
44509;DHT22;30214;52.246;14.408;2024-01-10T02:42:58;-11.20;99.90
44509;DHT22;30214;52.246;14.408;2024-01-10T02:45:25;-11.20;99.90
44509;DHT22;30214;52.246;14.408;2024-01-10T02:47:52;-11.30;99.90
44509;DHT22;30214;52.246;14.408;2024-01-10T02:50:19;-11.30;99.90
44509;DHT22;30214;52.246;14.408;2024-01-10T02:52:46;-11.30;99.90
44509;DHT22;30214;52.246;14.408;2024-01-10T02:55:15;-11.30;99.90
44509;DHT22;30214;52.246;14.408;2024-01-10T02:57:42;-11.40;99.90
44509;DHT22;30214;52.246;14.408;2024-01-10T03:00:11;-11.40;99.90
44509;DHT22;30214;52.246;14.408;2024-01-10T03:02:39;-11.50;99.90
44509;DHT22;30214;52.246;14.408;2024-01-10T03:05:06;-11.60;99.90
44509;DHT22;30214;52.246;14.408;2024-01-10T03:07:33;-11.50;99.90
44509;DHT22;30214;52.246;14.408;2024-01-10T03:10:00;-11.40;99.90
44509;DHT22;30214;52.246;14.408;2024-01-10T03:12:27;-11.60;99.90
44509;DHT22;30214;52.246;14.408;2024-01-10T03:14:54;-11.70;99.90
44509;DHT22;30214;52.246;14.408;2024-01-10T03:17:22;-11.50;99.90
44509;DHT22;30214;52.246;14.408;2024-01-10T03:19:49;-11.50;99.90
44509;DHT22;30214;52.246;14.408;2024-01-10T03:22:16;-11.40;99.90
44509;DHT22;30214;52.246;14.408;2024-01-10T03:24:43;-11.40;99.90
44509;DHT22;30214;52.246;14.408;2024-01-10T03:27:10;-11.40;99.90
44509;DHT22;30214;52.246;14.408;2024-01-10T03:29:37;-11.50;99.90
44509;DHT22;30214;52.246;14.408;2024-01-10T03:32:04;-11.50;99.90
44509;DHT22;30214;52.246;14.408;2024-01-10T03:34:33;-11.40;99.90
44509;DHT22;30214;52.246;14.408;2024-01-10T03:37:00;-11.40;99.90
44509;DHT22;30214;52.246;14.408;2024-01-10T03:39:27;-11.50;99.90
44509;DHT22;30214;52.246;14.408;2024-01-10T03:41:54;-11.60;99.90
44509;DHT22;30214;52.246;14.408;2024-01-10T03:44:21;-11.60;99.90
44509;DHT22;30214;52.246;14.408;2024-01-10T03:46:48;-11.50;99.90
44509;DHT22;30214;52.246;14.408;2024-01-10T03:49:15;-11.40;99.90
44509;DHT22;30214;52.246;14.408;2024-01-10T03:51:46;-11.40;99.90
44509;DHT22;30214;52.246;14.408;2024-01-10T03:54:13;-11.30;99.90
44509;DHT22;30214;52.246;14.408;2024-01-10T03:56:40;-11.30;99.90
44509;DHT22;30214;52.246;14.408;2024-01-10T03:59:07;-11.20;99.90
44509;DHT22;30214;52.246;14.408;2024-01-10T04:01:33;-11.10;99.90
44509;DHT22;30214;52.246;14.408;2024-01-10T04:04:00;-11.10;99.90
44509;DHT22;30214;52.246;14.408;2024-01-10T04:06:28;-11.00;99.90
44509;DHT22;30214;52.246;14.408;2024-01-10T04:08:56;-11.00;99.90
44509;DHT22;30214;52.246;14.408;2024-01-10T04:11:23;-11.00;99.90
44509;DHT22;30214;52.246;14.408;2024-01-10T04:13:50;-11.00;99.90
44509;DHT22;30214;52.246;14.408;2024-01-10T04:16:17;-11.00;99.90
44509;DHT22;30214;52.246;14.408;2024-01-10T04:18:44;-11.00;99.90
44509;DHT22;30214;52.246;14.408;2024-01-10T04:21:11;-11.00;99.90
44509;DHT22;30214;52.246;14.408;2024-01-10T04:23:39;-11.00;99.90
44509;DHT22;30214;52.246;14.408;2024-01-10T04:26:07;-11.10;99.90
44509;DHT22;30214;52.246;14.408;2024-01-10T04:28:34;-11.10;99.90
44509;DHT22;30214;52.246;14.408;2024-01-10T04:31:01;-11.10;99.90
44509;DHT22;30214;52.246;14.408;2024-01-10T04:33:28;-11.20;99.90
44509;DHT22;30214;52.246;14.408;2024-01-10T04:35:55;-11.30;99.90
44509;DHT22;30214;52.246;14.408;2024-01-10T04:38:22;-11.30;99.90
44509;DHT22;30214;52.246;14.408;2024-01-10T04:40:51;-11.40;99.90
44509;DHT22;30214;52.246;14.408;2024-01-10T04:43:20;-11.50;99.90
44509;DHT22;30214;52.246;14.408;2024-01-10T04:45:46;-11.50;99.90
44509;DHT22;30214;52.246;14.408;2024-01-10T04:48:13;-11.60;99.90
44509;DHT22;30214;52.246;14.408;2024-01-10T04:50:40;-11.70;99.90
44509;DHT22;30214;52.246;14.408;2024-01-10T04:53:07;-11.80;99.90
44509;DHT22;30214;52.246;14.408;2024-01-10T04:55:35;-11.80;99.90
44509;DHT22;30214;52.246;14.408;2024-01-10T04:58:01;-11.70;99.90
44509;DHT22;30214;52.246;14.408;2024-01-10T05:00:30;-11.70;99.90
44509;DHT22;30214;52.246;14.408;2024-01-10T05:02:57;-11.60;99.90
44509;DHT22;30214;52.246;14.408;2024-01-10T05:05:24;-11.70;99.90
44509;DHT22;30214;52.246;14.408;2024-01-10T05:07:51;-11.70;99.90
44509;DHT22;30214;52.246;14.408;2024-01-10T05:10:18;-11.70;99.90
44509;DHT22;30214;52.246;14.408;2024-01-10T05:12:45;-11.70;99.90
44509;DHT22;30214;52.246;14.408;2024-01-10T05:15:15;-11.60;99.90
44509;DHT22;30214;52.246;14.408;2024-01-10T05:17:43;-11.60;99.90
44509;DHT22;30214;52.246;14.408;2024-01-10T05:20:10;-11.50;99.90
44509;DHT22;30214;52.246;14.408;2024-01-10T05:22:39;-11.40;99.90
44509;DHT22;30214;52.246;14.408;2024-01-10T05:25:07;-11.40;99.90
44509;DHT22;30214;52.246;14.408;2024-01-10T05:27:34;-11.30;99.90
44509;DHT22;30214;52.246;14.408;2024-01-10T05:30:01;-11.20;99.90
44509;DHT22;30214;52.246;14.408;2024-01-10T05:32:28;-11.20;99.90
44509;DHT22;30214;52.246;14.408;2024-01-10T05:34:56;-11.30;99.90
44509;DHT22;30214;52.246;14.408;2024-01-10T05:37:23;-11.20;99.90
44509;DHT22;30214;52.246;14.408;2024-01-10T05:39:50;-11.20;99.90
44509;DHT22;30214;52.246;14.408;2024-01-10T05:42:17;-11.20;99.90
44509;DHT22;30214;52.246;14.408;2024-01-10T05:44:44;-11.20;99.90
44509;DHT22;30214;52.246;14.408;2024-01-10T05:47:11;-11.20;99.90
44509;DHT22;30214;52.246;14.408;2024-01-10T05:49:38;-11.30;99.90
44509;DHT22;30214;52.246;14.408;2024-01-10T05:52:07;-11.30;99.90
44509;DHT22;30214;52.246;14.408;2024-01-10T05:54:34;-11.40;99.90
44509;DHT22;30214;52.246;14.408;2024-01-10T05:57:01;-11.50;99.90
44509;DHT22;30214;52.246;14.408;2024-01-10T05:59:28;-11.50;99.90
44509;DHT22;30214;52.246;14.408;2024-01-10T06:01:56;-11.60;99.90
44509;DHT22;30214;52.246;14.408;2024-01-10T06:04:23;-11.60;99.90
44509;DHT22;30214;52.246;14.408;2024-01-10T06:06:50;-11.60;99.90
44509;DHT22;30214;52.246;14.408;2024-01-10T06:09:18;-11.60;99.90
44509;DHT22;30214;52.246;14.408;2024-01-10T06:11:47;-11.60;99.90
44509;DHT22;30214;52.246;14.408;2024-01-10T06:14:14;-11.70;99.90
44509;DHT22;30214;52.246;14.408;2024-01-10T06:16:41;-11.90;99.90
44509;DHT22;30214;52.246;14.408;2024-01-10T06:19:09;-11.80;99.90
44509;DHT22;30214;52.246;14.408;2024-01-10T06:21:36;-11.80;99.90
44509;DHT22;30214;52.246;14.408;2024-01-10T06:24:03;-11.80;99.90
44509;DHT22;30214;52.246;14.408;2024-01-10T06:26:32;-11.80;99.90
44509;DHT22;30214;52.246;14.408;2024-01-10T06:28:59;-11.80;99.90
44509;DHT22;30214;52.246;14.408;2024-01-10T06:31:26;-11.80;99.90
44509;DHT22;30214;52.246;14.408;2024-01-10T06:33:53;-11.90;99.90
44509;DHT22;30214;52.246;14.408;2024-01-10T06:36:21;-12.00;99.90
44509;DHT22;30214;52.246;14.408;2024-01-10T06:38:48;-12.10;99.90
44509;DHT22;30214;52.246;14.408;2024-01-10T06:41:14;-12.10;99.90
44509;DHT22;30214;52.246;14.408;2024-01-10T06:43:43;-12.10;99.90
44509;DHT22;30214;52.246;14.408;2024-01-10T06:46:10;-12.10;99.90
44509;DHT22;30214;52.246;14.408;2024-01-10T06:48:37;-12.20;99.90
44509;DHT22;30214;52.246;14.408;2024-01-10T06:51:06;-12.20;99.90
44509;DHT22;30214;52.246;14.408;2024-01-10T06:53:36;-12.20;99.90
44509;DHT22;30214;52.246;14.408;2024-01-10T06:56:03;-12.30;99.90
44509;DHT22;30214;52.246;14.408;2024-01-10T06:58:31;-12.20;99.90
44509;DHT22;30214;52.246;14.408;2024-01-10T07:01:00;-12.10;99.90
44509;DHT22;30214;52.246;14.408;2024-01-10T07:03:29;-12.20;99.90
44509;DHT22;30214;52.246;14.408;2024-01-10T07:05:56;-12.20;99.90
44509;DHT22;30214;52.246;14.408;2024-01-10T07:08:25;-12.10;99.90
44509;DHT22;30214;52.246;14.408;2024-01-10T07:10:52;-11.90;99.90
44509;DHT22;30214;52.246;14.408;2024-01-10T07:13:21;-11.80;99.90
44509;DHT22;30214;52.246;14.408;2024-01-10T07:15:48;-11.80;99.90
44509;DHT22;30214;52.246;14.408;2024-01-10T07:18:17;-11.70;99.90
44509;DHT22;30214;52.246;14.408;2024-01-10T07:20:44;-11.60;99.90
44509;DHT22;30214;52.246;14.408;2024-01-10T07:23:12;-11.50;99.90
44509;DHT22;30214;52.246;14.408;2024-01-10T07:25:39;-11.50;99.90
44509;DHT22;30214;52.246;14.408;2024-01-10T07:28:06;-11.40;99.90
44509;DHT22;30214;52.246;14.408;2024-01-10T07:30:33;-11.40;99.90
44509;DHT22;30214;52.246;14.408;2024-01-10T07:33:00;-11.30;99.90
44509;DHT22;30214;52.246;14.408;2024-01-10T07:35:29;-11.40;99.90
44509;DHT22;30214;52.246;14.408;2024-01-10T07:37:56;-11.30;99.90
44509;DHT22;30214;52.246;14.408;2024-01-10T07:40:23;-11.40;99.90
44509;DHT22;30214;52.246;14.408;2024-01-10T07:42:50;-11.40;99.90
44509;DHT22;30214;52.246;14.408;2024-01-10T07:45:17;-11.30;99.90
44509;DHT22;30214;52.246;14.408;2024-01-10T07:47:44;-11.20;99.90
44509;DHT22;30214;52.246;14.408;2024-01-10T07:50:12;-11.20;99.90
44509;DHT22;30214;52.246;14.408;2024-01-10T07:52:43;-11.10;99.90
44509;DHT22;30214;52.246;14.408;2024-01-10T07:55:11;-11.10;99.90
44509;DHT22;30214;52.246;14.408;2024-01-10T07:57:38;-11.00;99.90
44509;DHT22;30214;52.246;14.408;2024-01-10T08:00:08;-11.00;99.90
44509;DHT22;30214;52.246;14.408;2024-01-10T08:02:36;-10.90;99.90
44509;DHT22;30214;52.246;14.408;2024-01-10T08:05:03;-11.00;99.90
44509;DHT22;30214;52.246;14.408;2024-01-10T08:07:33;-11.00;99.90
44509;DHT22;30214;52.246;14.408;2024-01-10T08:10:22;-11.10;99.90
44509;DHT22;30214;52.246;14.408;2024-01-10T08:12:49;-11.00;99.90
44509;DHT22;30214;52.246;14.408;2024-01-10T08:15:18;-11.00;99.90
44509;DHT22;30214;52.246;14.408;2024-01-10T08:17:45;-11.00;99.90
44509;DHT22;30214;52.246;14.408;2024-01-10T08:20:12;-11.00;99.90
44509;DHT22;30214;52.246;14.408;2024-01-10T08:22:44;-10.90;99.90
44509;DHT22;30214;52.246;14.408;2024-01-10T08:25:15;-10.90;99.90
44509;DHT22;30214;52.246;14.408;2024-01-10T08:27:45;-10.90;99.90
44509;DHT22;30214;52.246;14.408;2024-01-10T08:30:13;-10.80;99.90
44509;DHT22;30214;52.246;14.408;2024-01-10T08:32:40;-10.70;99.90
44509;DHT22;30214;52.246;14.408;2024-01-10T08:35:07;-10.60;99.90
44509;DHT22;30214;52.246;14.408;2024-01-10T08:37:34;-10.40;99.90
44509;DHT22;30214;52.246;14.408;2024-01-10T08:40:03;-10.30;99.90
44509;DHT22;30214;52.246;14.408;2024-01-10T08:42:35;-10.30;99.90
44509;DHT22;30214;52.246;14.408;2024-01-10T08:45:04;-10.30;99.90
44509;DHT22;30214;52.246;14.408;2024-01-10T08:47:33;-10.20;99.90
44509;DHT22;30214;52.246;14.408;2024-01-10T08:50:00;-10.10;99.90
44509;DHT22;30214;52.246;14.408;2024-01-10T08:52:30;-10.00;99.90
44509;DHT22;30214;52.246;14.408;2024-01-10T08:54:57;-10.00;99.90
44509;DHT22;30214;52.246;14.408;2024-01-10T08:57:24;-9.90;99.90
44509;DHT22;30214;52.246;14.408;2024-01-10T08:59:53;-9.80;99.90
44509;DHT22;30214;52.246;14.408;2024-01-10T09:02:21;-9.70;99.90
44509;DHT22;30214;52.246;14.408;2024-01-10T09:04:49;-9.60;99.90
44509;DHT22;30214;52.246;14.408;2024-01-10T09:07:16;-9.60;99.90
44509;DHT22;30214;52.246;14.408;2024-01-10T09:09:45;-9.60;99.90
44509;DHT22;30214;52.246;14.408;2024-01-10T09:12:14;-9.50;99.90
44509;DHT22;30214;52.246;14.408;2024-01-10T09:14:41;-9.40;99.90
44509;DHT22;30214;52.246;14.408;2024-01-10T09:17:08;-9.30;99.90
44509;DHT22;30214;52.246;14.408;2024-01-10T09:19:36;-9.20;99.90
44509;DHT22;30214;52.246;14.408;2024-01-10T09:22:03;-9.10;99.90
44509;DHT22;30214;52.246;14.408;2024-01-10T09:24:31;-9.00;99.90
44509;DHT22;30214;52.246;14.408;2024-01-10T09:26:58;-8.90;99.90
44509;DHT22;30214;52.246;14.408;2024-01-10T09:29:27;-8.80;99.90
44509;DHT22;30214;52.246;14.408;2024-01-10T09:31:57;-8.70;99.90
44509;DHT22;30214;52.246;14.408;2024-01-10T09:34:24;-8.60;99.90
44509;DHT22;30214;52.246;14.408;2024-01-10T09:36:52;-8.50;99.90
44509;DHT22;30214;52.246;14.408;2024-01-10T09:39:19;-8.40;99.90
44509;DHT22;30214;52.246;14.408;2024-01-10T09:41:47;-8.30;99.90
44509;DHT22;30214;52.246;14.408;2024-01-10T09:44:16;-8.30;99.90
44509;DHT22;30214;52.246;14.408;2024-01-10T09:46:45;-8.20;99.90
44509;DHT22;30214;52.246;14.408;2024-01-10T09:49:14;-8.00;99.90
44509;DHT22;30214;52.246;14.408;2024-01-10T09:51:42;-8.00;99.90
44509;DHT22;30214;52.246;14.408;2024-01-10T09:54:10;-7.90;99.90
44509;DHT22;30214;52.246;14.408;2024-01-10T09:56:37;-7.80;99.90
44509;DHT22;30214;52.246;14.408;2024-01-10T09:59:04;-7.70;99.90
44509;DHT22;30214;52.246;14.408;2024-01-10T10:01:36;-7.60;99.90
44509;DHT22;30214;52.246;14.408;2024-01-10T10:04:04;-7.60;99.90
44509;DHT22;30214;52.246;14.408;2024-01-10T10:06:33;-7.50;99.90
44509;DHT22;30214;52.246;14.408;2024-01-10T10:09:00;-7.40;99.90
44509;DHT22;30214;52.246;14.408;2024-01-10T10:11:28;-7.30;99.90
44509;DHT22;30214;52.246;14.408;2024-01-10T10:13:55;-7.30;99.90
44509;DHT22;30214;52.246;14.408;2024-01-10T10:16:23;-7.30;99.90
44509;DHT22;30214;52.246;14.408;2024-01-10T10:18:52;-7.10;99.90
44509;DHT22;30214;52.246;14.408;2024-01-10T10:21:24;-7.20;99.90
44509;DHT22;30214;52.246;14.408;2024-01-10T10:23:58;-7.10;99.90
44509;DHT22;30214;52.246;14.408;2024-01-10T10:26:26;-7.00;99.90
44509;DHT22;30214;52.246;14.408;2024-01-10T10:28:56;-6.90;99.90
44509;DHT22;30214;52.246;14.408;2024-01-10T10:31:23;-6.80;99.90
44509;DHT22;30214;52.246;14.408;2024-01-10T10:33:51;-6.70;99.90
44509;DHT22;30214;52.246;14.408;2024-01-10T10:36:18;-6.70;99.90
44509;DHT22;30214;52.246;14.408;2024-01-10T10:38:46;-6.70;99.90
44509;DHT22;30214;52.246;14.408;2024-01-10T10:41:13;-6.60;99.90
44509;DHT22;30214;52.246;14.408;2024-01-10T10:43:40;-6.40;99.90
44509;DHT22;30214;52.246;14.408;2024-01-10T10:46:09;-6.40;99.90
44509;DHT22;30214;52.246;14.408;2024-01-10T10:48:39;-6.30;99.90
44509;DHT22;30214;52.246;14.408;2024-01-10T10:51:08;-6.30;99.90
44509;DHT22;30214;52.246;14.408;2024-01-10T10:53:36;-6.30;99.90
44509;DHT22;30214;52.246;14.408;2024-01-10T10:56:04;-6.20;99.90
44509;DHT22;30214;52.246;14.408;2024-01-10T10:58:33;-6.10;99.90
44509;DHT22;30214;52.246;14.408;2024-01-10T11:01:02;-6.10;99.90
44509;DHT22;30214;52.246;14.408;2024-01-10T11:03:34;-6.00;99.90
44509;DHT22;30214;52.246;14.408;2024-01-10T11:06:03;-5.90;99.90
44509;DHT22;30214;52.246;14.408;2024-01-10T11:08:33;-5.90;99.90
44509;DHT22;30214;52.246;14.408;2024-01-10T11:11:03;-5.90;99.90
44509;DHT22;30214;52.246;14.408;2024-01-10T11:13:37;-5.80;99.90
44509;DHT22;30214;52.246;14.408;2024-01-10T11:19:10;-5.50;99.90
44509;DHT22;30214;52.246;14.408;2024-01-10T11:21:56;-5.40;99.90
44509;DHT22;30214;52.246;14.408;2024-01-10T11:24:27;-5.40;99.90
44509;DHT22;30214;52.246;14.408;2024-01-10T11:27:05;-5.20;99.90
44509;DHT22;30214;52.246;14.408;2024-01-10T11:29:33;-5.10;99.90
44509;DHT22;30214;52.246;14.408;2024-01-10T11:32:00;-5.20;99.90
44509;DHT22;30214;52.246;14.408;2024-01-10T11:34:31;-5.10;99.90
44509;DHT22;30214;52.246;14.408;2024-01-10T11:37:09;-5.00;99.90
44509;DHT22;30214;52.246;14.408;2024-01-10T11:39:37;-5.00;99.90
44509;DHT22;30214;52.246;14.408;2024-01-10T11:42:09;-4.90;99.90
44509;DHT22;30214;52.246;14.408;2024-01-10T11:44:46;-4.80;99.90
44509;DHT22;30214;52.246;14.408;2024-01-10T11:47:14;-4.80;99.90
44509;DHT22;30214;52.246;14.408;2024-01-10T11:49:42;-4.70;99.90
44509;DHT22;30214;52.246;14.408;2024-01-10T11:52:20;-4.60;99.90
44509;DHT22;30214;52.246;14.408;2024-01-10T11:54:48;-4.60;99.90
44509;DHT22;30214;52.246;14.408;2024-01-10T11:57:19;-4.50;99.90
44509;DHT22;30214;52.246;14.408;2024-01-10T11:59:47;-4.40;99.90
44509;DHT22;30214;52.246;14.408;2024-01-10T12:02:17;-4.40;99.90
44509;DHT22;30214;52.246;14.408;2024-01-10T12:04:46;-4.30;99.90
44509;DHT22;30214;52.246;14.408;2024-01-10T12:07:16;-4.30;99.90
44509;DHT22;30214;52.246;14.408;2024-01-10T12:09:43;-4.10;99.90
44509;DHT22;30214;52.246;14.408;2024-01-10T12:12:11;-4.00;99.90
44509;DHT22;30214;52.246;14.408;2024-01-10T12:14:39;-4.10;99.90
44509;DHT22;30214;52.246;14.408;2024-01-10T12:17:06;-4.00;99.90
44509;DHT22;30214;52.246;14.408;2024-01-10T12:19:34;-3.90;99.80
44509;DHT22;30214;52.246;14.408;2024-01-10T12:22:02;-3.80;99.90
44509;DHT22;30214;52.246;14.408;2024-01-10T12:24:30;-3.80;99.70
44509;DHT22;30214;52.246;14.408;2024-01-10T12:26:57;-3.70;97.40
44509;DHT22;30214;52.246;14.408;2024-01-10T12:29:25;-3.60;97.90
44509;DHT22;30214;52.246;14.408;2024-01-10T12:31:52;-3.60;98.00
44509;DHT22;30214;52.246;14.408;2024-01-10T12:34:20;-3.50;97.00
44509;DHT22;30214;52.246;14.408;2024-01-10T12:36:47;-3.50;97.00
44509;DHT22;30214;52.246;14.408;2024-01-10T12:39:16;-3.50;96.20
44509;DHT22;30214;52.246;14.408;2024-01-10T12:41:43;-3.50;97.30
44509;DHT22;30214;52.246;14.408;2024-01-10T12:44:11;-3.40;95.90
44509;DHT22;30214;52.246;14.408;2024-01-10T12:46:47;-3.30;96.10
44509;DHT22;30214;52.246;14.408;2024-01-10T12:49:16;-3.30;95.70
44509;DHT22;30214;52.246;14.408;2024-01-10T12:51:43;-3.30;96.10
44509;DHT22;30214;52.246;14.408;2024-01-10T12:54:16;-3.30;95.30
44509;DHT22;30214;52.246;14.408;2024-01-10T12:56:44;-3.30;95.30
44509;DHT22;30214;52.246;14.408;2024-01-10T12:59:11;-3.30;94.30
44509;DHT22;30214;52.246;14.408;2024-01-10T13:01:39;-3.30;94.20
44509;DHT22;30214;52.246;14.408;2024-01-10T13:04:07;-3.20;93.60
44509;DHT22;30214;52.246;14.408;2024-01-10T13:06:34;-3.20;93.60
44509;DHT22;30214;52.246;14.408;2024-01-10T13:09:01;-3.30;93.70
44509;DHT22;30214;52.246;14.408;2024-01-10T13:11:29;-3.30;93.90
44509;DHT22;30214;52.246;14.408;2024-01-10T13:13:56;-3.20;93.80
44509;DHT22;30214;52.246;14.408;2024-01-10T13:16:23;-3.20;94.40
44509;DHT22;30214;52.246;14.408;2024-01-10T13:18:50;-3.20;94.50
44509;DHT22;30214;52.246;14.408;2024-01-10T13:21:18;-3.20;93.90
44509;DHT22;30214;52.246;14.408;2024-01-10T13:23:45;-3.20;93.10
44509;DHT22;30214;52.246;14.408;2024-01-10T13:26:12;-3.10;93.80
44509;DHT22;30214;52.246;14.408;2024-01-10T13:28:45;-3.00;93.50
44509;DHT22;30214;52.246;14.408;2024-01-10T13:31:12;-3.00;93.50
44509;DHT22;30214;52.246;14.408;2024-01-10T13:33:40;-3.00;93.50
44509;DHT22;30214;52.246;14.408;2024-01-10T13:36:07;-3.00;93.10
44509;DHT22;30214;52.246;14.408;2024-01-10T13:38:34;-2.90;92.60
44509;DHT22;30214;52.246;14.408;2024-01-10T13:41:02;-2.90;92.70
44509;DHT22;30214;52.246;14.408;2024-01-10T13:43:30;-2.80;93.10
44509;DHT22;30214;52.246;14.408;2024-01-10T13:45:59;-2.90;93.00
44509;DHT22;30214;52.246;14.408;2024-01-10T13:48:26;-2.80;93.60
44509;DHT22;30214;52.246;14.408;2024-01-10T13:50:54;-2.80;93.20
44509;DHT22;30214;52.246;14.408;2024-01-10T13:53:20;-2.70;92.70
44509;DHT22;30214;52.246;14.408;2024-01-10T13:55:48;-2.70;92.40
44509;DHT22;30214;52.246;14.408;2024-01-10T13:58:15;-2.80;93.10
44509;DHT22;30214;52.246;14.408;2024-01-10T14:00:44;-2.80;93.60
44509;DHT22;30214;52.246;14.408;2024-01-10T14:03:15;-2.80;93.80
44509;DHT22;30214;52.246;14.408;2024-01-10T14:05:42;-2.90;93.80
44509;DHT22;30214;52.246;14.408;2024-01-10T14:08:10;-2.80;94.40
44509;DHT22;30214;52.246;14.408;2024-01-10T14:10:37;-2.80;95.20
44509;DHT22;30214;52.246;14.408;2024-01-10T14:13:05;-2.80;95.60
44509;DHT22;30214;52.246;14.408;2024-01-10T14:15:32;-2.90;95.20
44509;DHT22;30214;52.246;14.408;2024-01-10T14:18:00;-2.80;95.70
44509;DHT22;30214;52.246;14.408;2024-01-10T14:20:29;-2.80;95.60
44509;DHT22;30214;52.246;14.408;2024-01-10T14:22:57;-2.80;96.50
44509;DHT22;30214;52.246;14.408;2024-01-10T14:25:25;-2.80;95.70
44509;DHT22;30214;52.246;14.408;2024-01-10T14:27:52;-2.70;95.70
44509;DHT22;30214;52.246;14.408;2024-01-10T14:30:19;-2.80;96.40
44509;DHT22;30214;52.246;14.408;2024-01-10T14:32:46;-2.90;96.70
44509;DHT22;30214;52.246;14.408;2024-01-10T14:35:14;-2.90;97.10
44509;DHT22;30214;52.246;14.408;2024-01-10T14:37:42;-3.00;96.60
44509;DHT22;30214;52.246;14.408;2024-01-10T14:40:10;-3.00;96.50
44509;DHT22;30214;52.246;14.408;2024-01-10T14:42:37;-3.00;96.70
44509;DHT22;30214;52.246;14.408;2024-01-10T14:45:05;-3.00;96.80
44509;DHT22;30214;52.246;14.408;2024-01-10T14:47:33;-3.10;97.30
44509;DHT22;30214;52.246;14.408;2024-01-10T14:50:00;-3.10;97.20
44509;DHT22;30214;52.246;14.408;2024-01-10T14:52:29;-2.90;97.00
44509;DHT22;30214;52.246;14.408;2024-01-10T14:54:57;-3.00;97.20
44509;DHT22;30214;52.246;14.408;2024-01-10T14:57:24;-3.00;97.40
44509;DHT22;30214;52.246;14.408;2024-01-10T14:59:51;-3.10;97.60
44509;DHT22;30214;52.246;14.408;2024-01-10T15:02:21;-3.10;97.80
44509;DHT22;30214;52.246;14.408;2024-01-10T15:04:48;-3.20;98.10
44509;DHT22;30214;52.246;14.408;2024-01-10T15:07:15;-3.20;98.20
44509;DHT22;30214;52.246;14.408;2024-01-10T15:09:42;-3.30;98.80
44509;DHT22;30214;52.246;14.408;2024-01-10T15:12:11;-3.40;99.90
44509;DHT22;30214;52.246;14.408;2024-01-10T15:14:38;-3.40;99.90